createdAt,value
2023-02-27T00:05:15.216Z,99220.03
2023-02-27T00:10:40.214Z,99224.50
2023-02-27T00:16:07.267Z,99220.34
2023-02-27T00:21:32.221Z,99217.91
2023-02-27T00:26:56.198Z,99217.91
2023-02-27T00:32:24.207Z,99211.34
2023-02-27T00:38:04.233Z,99216.25
2023-02-27T00:43:29.239Z,99211.34
2023-02-27T00:48:56.211Z,99216.69
2023-02-27T00:54:21.251Z,99210.78
2023-02-27T00:59:45.218Z,99213.50
2023-02-27T01:05:19.289Z,99211.00
2023-02-27T01:10:44.242Z,99217.16
2023-02-27T01:16:09.261Z,99215.41
2023-02-27T01:21:37.236Z,99216.25
2023-02-27T01:27:02.239Z,99219.72
2023-02-27T01:32:28.323Z,99222.34
2023-02-27T01:37:55.287Z,99230.34
2023-02-27T01:43:25.262Z,99219.13
2023-02-27T01:48:54.252Z,99222.66
2023-02-27T01:54:25.298Z,99227.91
2023-02-27T01:59:50.256Z,99221.09
2023-02-27T02:05:17.244Z,99221.13
2023-02-27T02:10:46.266Z,99213.25
2023-02-27T02:16:24.266Z,99217.44
2023-02-27T02:22:24.256Z,99212.34
2023-02-27T02:28:06.247Z,99226.72
2023-02-27T02:34:03.253Z,99235.13
2023-02-27T02:40:05.273Z,99232.78
2023-02-27T02:45:38.259Z,99231.44
2023-02-27T02:51:11.245Z,99236.88
2023-02-27T02:56:51.290Z,99239.16
2023-02-27T03:02:20.273Z,99242.50
2023-02-27T03:08:15.260Z,99240.97
2023-02-27T03:13:47.256Z,99252.63
2023-02-27T03:19:17.281Z,99257.16
2023-02-27T03:24:55.287Z,99263.47
2023-02-27T03:30:29.269Z,99251.38
2023-02-27T03:36:00.230Z,99261.94
2023-02-27T03:41:35.276Z,99264.56
2023-02-27T03:47:32.338Z,99267.19
2023-02-27T03:52:57.289Z,99273.31
2023-02-27T03:58:22.271Z,99279.41
2023-02-27T04:03:59.270Z,99286.44
2023-02-27T04:10:00.314Z,99295.22
2023-02-27T04:15:36.258Z,99300.47
2023-02-27T04:21:10.279Z,99297.66
2023-02-27T04:26:40.296Z,99302.78
2023-02-27T04:32:17.498Z,99306.09
2023-02-27T04:37:53.276Z,99309.34
2023-02-27T04:43:21.290Z,99310.91
2023-02-27T04:48:53.314Z,99320.34
2023-02-27T04:54:26.329Z,99326.19
2023-02-27T04:59:56.305Z,99328.72
2023-02-27T05:05:25.353Z,99328.72
2023-02-27T05:10:59.353Z,99327.84
2023-02-27T05:16:33.408Z,99336.41
2023-02-27T05:22:11.300Z,99338.16
2023-02-27T05:27:48.291Z,99338.25
2023-02-27T05:33:18.283Z,99346.88
2023-02-27T05:38:48.341Z,99341.50
2023-02-27T05:44:20.296Z,99348.47
2023-02-27T05:49:50.286Z,99348.31
2023-02-27T05:55:20.298Z,99364.72
2023-02-27T06:00:50.286Z,99359.31
2023-02-27T06:06:18.327Z,99359.91
2023-02-27T06:11:43.331Z,99372.06
2023-02-27T06:17:10.292Z,99370.06
2023-02-27T06:22:35.342Z,99376.78
2023-02-27T06:28:00.359Z,99380.13
2023-02-27T06:33:28.365Z,99372.09
2023-02-27T06:38:53.329Z,99389.41
2023-02-27T06:44:19.524Z,99377.09
2023-02-27T06:49:46.337Z,99377.94
2023-02-27T06:55:11.361Z,99378.69
2023-02-27T07:00:36.328Z,99383.81
2023-02-27T07:06:04.310Z,99375.84
2023-02-27T07:11:28.338Z,99394.31
2023-02-27T07:17:00.340Z,99391.75
2023-02-27T07:22:34.367Z,99394.31
2023-02-27T07:27:59.343Z,99394.97
2023-02-27T07:33:24.335Z,99397.38
2023-02-27T07:38:52.310Z,99413.03
2023-02-27T07:44:17.347Z,99421.38
2023-02-27T07:49:42.355Z,99431.19
2023-02-27T07:55:09.363Z,99411.59
2023-02-27T08:00:34.334Z,99406.44
2023-02-27T08:06:01.228Z,99403.16
2023-02-27T08:11:30.343Z,99408.81
2023-02-27T08:16:54.336Z,99419.81
2023-02-27T08:22:25.387Z,99408.06
2023-02-27T08:27:53.387Z,99411.94
2023-02-27T08:33:18.370Z,99421.19
2023-02-27T08:38:43.390Z,99420.84
2023-02-27T08:44:10.365Z,99417.88
2023-02-27T08:49:35.357Z,99428.78
2023-02-27T08:54:59.355Z,99430.78
2023-02-27T09:00:28.392Z,99432.78
2023-02-27T09:05:52.360Z,99431.31
2023-02-27T09:11:17.384Z,99428.78
2023-02-27T09:16:44.373Z,99417.78
2023-02-27T09:22:15.376Z,99422.44
2023-02-27T09:27:40.346Z,99441.97
2023-02-27T09:33:07.395Z,99438.34
2023-02-27T09:38:32.384Z,99435.66
2023-02-27T09:44:03.390Z,99435.75
2023-02-27T09:49:35.381Z,99443.06
2023-02-27T09:55:01.394Z,99448.72
2023-02-27T10:00:48.379Z,99448.25
2023-02-27T10:06:30.703Z,99442.25
2023-02-27T10:12:07.498Z,99438.25
2023-02-27T10:17:38.437Z,99452.00
2023-02-27T10:23:09.432Z,99454.72
2023-02-27T10:28:36.408Z,99439.56
2023-02-27T10:34:02.438Z,99449.66
2023-02-27T10:39:32.388Z,99453.94
2023-02-27T10:45:00.384Z,99455.06
2023-02-27T10:50:36.416Z,99455.06
2023-02-27T10:56:12.429Z,99448.69
2023-02-27T11:01:36.456Z,99451.34
2023-02-27T11:07:03.436Z,99448.88
2023-02-27T11:12:38.429Z,99443.41
2023-02-27T11:18:03.389Z,99436.06
2023-02-27T11:23:32.430Z,99436.13
2023-02-27T11:29:13.422Z,99424.63
2023-02-27T11:34:43.428Z,99419.13
2023-02-27T11:40:26.467Z,99413.91
2023-02-27T11:46:18.423Z,99415.88
2023-02-27T11:51:59.479Z,99417.91
2023-02-27T11:57:32.427Z,99409.28
2023-02-27T12:03:09.474Z,99412.97
2023-02-27T12:08:41.430Z,99407.91
2023-02-27T12:14:12.430Z,99406.72
2023-02-27T12:19:45.467Z,99405.53
2023-02-27T12:25:21.430Z,99394.28
2023-02-27T12:30:51.460Z,99399.19
2023-02-27T12:36:20.433Z,99401.00
2023-02-27T12:41:56.438Z,99403.06
2023-02-27T12:47:31.457Z,99399.06
2023-02-27T12:53:11.458Z,99396.66
2023-02-27T12:58:48.478Z,99408.13
2023-02-27T13:04:22.503Z,99412.66
2023-02-27T13:09:56.444Z,99401.19
2023-02-27T13:15:29.448Z,99402.22
2023-02-27T13:21:00.480Z,99414.22
2023-02-27T13:26:40.454Z,99407.81
2023-02-27T13:32:11.528Z,99414.75
2023-02-27T13:37:36.568Z,99412.44
2023-02-27T13:43:08.440Z,99406.00
2023-02-27T13:49:00.482Z,99410.75
2023-02-27T13:54:36.521Z,99407.47
2023-02-27T14:00:12.483Z,99416.84
2023-02-27T14:05:44.510Z,99419.00
2023-02-27T14:11:15.512Z,99421.91
2023-02-27T14:17:10.522Z,99420.50
2023-02-27T14:22:54.490Z,99419.25
2023-02-27T14:28:31.478Z,99406.28
2023-02-27T14:34:02.482Z,99407.03
2023-02-27T14:39:34.483Z,99396.28
2023-02-27T14:45:02.549Z,99396.63
2023-02-27T14:50:43.501Z,99397.88
2023-02-27T14:56:12.525Z,99397.97
2023-02-27T15:01:43.523Z,99401.97
2023-02-27T15:07:12.512Z,99392.69
2023-02-27T15:12:38.845Z,99405.66
2023-02-27T15:18:03.498Z,99403.56
2023-02-27T15:23:34.569Z,99420.59
2023-02-27T15:28:59.510Z,99416.91
2023-02-27T15:34:25.508Z,99420.34
2023-02-27T15:39:53.503Z,99422.16
2023-02-27T15:45:26.723Z,99416.91
2023-02-27T15:50:54.534Z,99419.75
2023-02-27T15:56:24.544Z,99420.38
2023-02-27T16:01:49.677Z,99422.63
2023-02-27T16:07:21.549Z,99417.13
2023-02-27T16:12:53.528Z,99419.22
2023-02-27T16:18:37.564Z,99425.44
2023-02-27T16:24:03.543Z,99437.31
2023-02-27T16:29:32.508Z,99448.41
2023-02-27T16:34:56.521Z,99450.69
2023-02-27T16:40:24.670Z,99457.44
2023-02-27T16:45:51.560Z,99457.81
2023-02-27T16:51:24.532Z,99461.94
2023-02-27T16:56:48.596Z,99457.81
2023-02-27T17:02:20.588Z,99473.88
2023-02-27T17:07:44.554Z,99487.38
2023-02-27T17:13:09.585Z,99514.69
2023-02-27T17:18:36.557Z,99512.69
2023-02-27T17:24:01.607Z,99527.25
2023-02-27T17:29:25.571Z,99528.47
2023-02-27T17:34:53.578Z,99525.19
2023-02-27T17:40:18.578Z,99539.44
2023-02-27T17:45:43.602Z,99543.13
2023-02-27T17:51:10.575Z,99544.19
2023-02-27T17:56:36.926Z,99553.88
2023-02-27T18:02:00.547Z,99563.66
2023-02-27T18:07:28.610Z,99566.47
2023-02-27T18:12:53.745Z,99567.41
2023-02-27T18:18:19.565Z,99561.41
2023-02-27T18:23:46.543Z,99567.78
2023-02-27T18:29:14.600Z,99567.88
2023-02-27T18:34:39.588Z,99565.28
2023-02-27T18:40:07.584Z,99559.03
2023-02-27T18:45:25.692Z,99560.75
2023-02-27T18:50:49.657Z,99562.59
2023-02-27T18:56:18.568Z,99553.97
2023-02-27T19:01:45.562Z,99563.91
2023-02-27T19:07:11.603Z,99557.16
2023-02-27T19:12:38.611Z,99568.03
2023-02-27T19:18:03.668Z,99560.34
2023-02-27T19:23:27.637Z,99565.63
2023-02-27T19:28:55.596Z,99559.75
2023-02-27T19:34:21.569Z,99562.38
2023-02-27T19:39:46.587Z,99560.91
2023-02-27T19:45:13.626Z,99555.78
2023-02-27T19:50:40.686Z,99564.81
2023-02-27T19:56:13.619Z,99565.94
2023-02-27T20:01:42.645Z,99563.53
2023-02-27T20:07:10.593Z,99570.81
2023-02-27T20:12:40.634Z,99572.81
2023-02-27T20:18:07.596Z,99571.97
2023-02-27T20:23:34.648Z,99570.25
2023-02-27T20:29:00.639Z,99571.22
2023-02-27T20:34:32.649Z,99566.03
2023-02-27T20:39:58.651Z,99570.44
2023-02-27T20:45:23.743Z,99564.41
2023-02-27T20:50:50.610Z,99567.13
2023-02-27T20:56:16.694Z,99566.25
2023-02-27T21:01:41.690Z,99568.19
2023-02-27T21:07:09.637Z,99563.72
2023-02-27T21:12:33.634Z,99565.38
2023-02-27T21:17:58.637Z,99568.06
2023-02-27T21:23:32.639Z,99576.06
2023-02-27T21:28:59.672Z,99573.56
2023-02-27T21:34:29.683Z,99573.00
2023-02-27T21:40:01.706Z,99576.72
2023-02-27T21:45:26.636Z,99576.31
2023-02-27T21:50:51.642Z,99580.00
2023-02-27T21:56:21.639Z,99570.59
2023-02-27T22:01:47.724Z,99577.78
2023-02-27T22:07:12.659Z,99573.56
2023-02-27T22:12:40.675Z,99572.97
2023-02-27T22:18:06.486Z,99584.56
2023-02-27T22:23:37.708Z,99584.75
2023-02-27T22:29:05.642Z,99589.31
2023-02-27T22:34:31.688Z,99593.88
2023-02-27T22:39:56.676Z,99581.66
2023-02-27T22:45:24.662Z,99592.13
2023-02-27T22:50:49.681Z,99586.09
2023-02-27T22:56:14.850Z,99591.28
2023-02-27T23:01:43.702Z,99592.88
2023-02-27T23:07:11.660Z,99600.78
2023-02-27T23:12:37.666Z,99605.16
2023-02-27T23:18:04.711Z,99607.00
2023-02-27T23:23:29.696Z,99613.16
2023-02-27T23:28:54.685Z,99608.69
2023-02-27T23:34:22.683Z,99620.91
2023-02-27T23:39:46.684Z,99616.41
2023-02-27T23:45:11.704Z,99606.66
2023-02-27T23:50:40.693Z,99615.31
2023-02-27T23:56:05.731Z,99620.47
